createdAt,value
2019-02-28T00:00:15.999Z,98807.83
2019-02-28T00:02:44.497Z,98809.32
2019-02-28T00:05:13.035Z,98803.61
2019-02-28T00:07:41.601Z,98799.70
2019-02-28T00:10:10.520Z,98800.78
2019-02-28T00:12:39.010Z,98796.25
2019-02-28T00:15:09.328Z,98789.28
2019-02-28T00:17:42.735Z,98787.59
2019-02-28T00:20:09.156Z,98778.91
2019-02-28T00:22:37.789Z,98772.98
2019-02-28T00:25:08.501Z,98772.63
2019-02-28T00:27:36.995Z,98766.67
2019-02-28T00:30:08.833Z,98751.63
2019-02-28T00:32:37.338Z,98761.38
2019-02-28T00:35:07.344Z,98759.05
2019-02-28T00:37:35.837Z,98751.83
2019-02-28T00:40:06.709Z,98742.70
2019-02-28T00:42:35.362Z,98747.56
2019-02-28T00:45:05.397Z,98748.27
2019-02-28T00:47:33.891Z,98731.13
2019-02-28T00:50:02.365Z,98734.88
2019-02-28T00:52:32.057Z,98722.00
2019-02-28T00:55:01.260Z,98720.89
2019-02-28T00:57:29.710Z,98723.27
2019-02-28T00:59:58.176Z,98717.84
2019-02-28T01:02:26.671Z,98717.89
2019-02-28T01:04:55.133Z,98721.31
2019-02-28T01:07:23.628Z,98706.86
2019-02-28T01:09:52.103Z,98708.02
2019-02-28T01:12:20.593Z,98710.34
2019-02-28T01:14:49.064Z,98703.94
2019-02-28T01:17:17.565Z,98695.78
2019-02-28T01:19:46.037Z,98690.20
2019-02-28T01:22:14.544Z,98689.53
2019-02-28T01:24:43.018Z,98684.58
2019-02-28T01:27:11.514Z,98681.83
2019-02-28T01:29:39.981Z,98669.77
2019-02-28T01:32:08.477Z,98668.77
2019-02-28T01:34:36.948Z,98669.70
2019-02-28T01:37:05.445Z,98666.78
2019-02-28T01:39:33.921Z,98654.29
2019-02-28T01:42:02.419Z,98645.29
2019-02-28T01:44:35.605Z,98647.55
2019-02-28T01:47:01.111Z,98643.58
2019-02-28T01:49:29.583Z,98635.05
2019-02-28T01:51:58.087Z,98623.18
2019-02-28T01:54:27.626Z,98627.61
2019-02-28T01:56:56.937Z,98629.61
2019-02-28T01:59:25.409Z,98625.11
2019-02-28T02:01:53.908Z,98617.75
2019-02-28T02:04:22.383Z,98619.27
2019-02-28T02:06:51.318Z,98601.30
2019-02-28T02:09:19.861Z,98602.94
2019-02-28T02:11:48.356Z,98601.22
2019-02-28T02:14:16.825Z,98588.17
2019-02-28T02:16:45.325Z,98588.50
2019-02-28T02:19:17.490Z,98582.45
2019-02-28T02:21:44.005Z,98578.27
2019-02-28T02:24:12.501Z,98581.12
2019-02-28T02:26:42.354Z,98585.57
2019-02-28T02:29:11.193Z,98581.64
2019-02-28T02:31:39.739Z,98581.77
2019-02-28T02:34:08.233Z,98574.44
2019-02-28T02:36:36.706Z,98566.24
2019-02-28T02:39:06.444Z,98556.32
2019-02-28T02:41:35.032Z,98556.02
2019-02-28T02:44:03.693Z,98555.50
2019-02-28T02:46:32.171Z,98548.64
2019-02-28T02:49:00.672Z,98549.48
2019-02-28T02:51:29.153Z,98549.18
2019-02-28T02:53:57.645Z,98545.55
2019-02-28T02:56:26.121Z,98547.16
2019-02-28T02:58:54.616Z,98541.76
2019-02-28T03:01:24.359Z,98536.66
2019-02-28T03:03:53.061Z,98535.69
2019-02-28T03:06:21.537Z,98527.97
2019-02-28T03:08:50.052Z,98522.33
2019-02-28T03:11:18.511Z,98519.72
2019-02-28T03:13:47.012Z,98519.14
2019-02-28T03:16:15.483Z,98509.91
2019-02-28T03:18:43.982Z,98511.02
2019-02-28T03:21:15.231Z,98519.52
2019-02-28T03:23:42.677Z,98512.13
2019-02-28T03:26:11.149Z,98520.44
2019-02-28T03:28:39.638Z,98514.41
2019-02-28T03:31:14.156Z,98511.31
2019-02-28T03:33:38.338Z,98515.78
2019-02-28T03:36:06.811Z,98510.07
2019-02-28T03:38:35.304Z,98507.00
2019-02-28T03:41:03.774Z,98504.67
2019-02-28T03:43:32.329Z,98503.27
2019-02-28T03:46:00.809Z,98496.84
2019-02-28T03:48:34.675Z,98495.45
2019-02-28T03:50:59.482Z,98483.57
2019-02-28T03:53:27.985Z,98485.80
2019-02-28T03:55:56.453Z,98493.05
2019-02-28T03:58:24.943Z,98498.06
2019-02-28T04:00:53.409Z,98493.13
2019-02-28T04:03:21.908Z,98483.14
2019-02-28T04:05:50.375Z,98477.45
2019-02-28T04:08:18.894Z,98464.17
2019-02-28T04:10:47.356Z,98469.06
2019-02-28T04:13:19.141Z,98470.16
2019-02-28T04:16:01.534Z,98467.59
2019-02-28T04:18:16.260Z,98455.21
2019-02-28T04:20:44.738Z,98455.70
2019-02-28T04:23:13.234Z,98450.69
2019-02-28T04:25:41.707Z,98448.92
2019-02-28T04:28:17.314Z,98446.70
2019-02-28T04:30:43.721Z,98442.80
2019-02-28T04:33:10.630Z,98433.28
2019-02-28T04:35:39.171Z,98433.88
2019-02-28T04:38:07.671Z,98436.78
2019-02-28T04:40:36.137Z,98429.85
2019-02-28T04:43:07.254Z,98427.55
2019-02-28T04:45:34.823Z,98428.35
2019-02-28T04:48:03.314Z,98421.64
2019-02-28T04:50:32.282Z,98415.62
2019-02-28T04:53:00.755Z,98406.82
2019-02-28T04:55:30.618Z,98408.22
2019-02-28T04:57:59.184Z,98407.02
2019-02-28T05:00:27.685Z,98405.47
2019-02-28T05:02:56.162Z,98399.87
2019-02-28T05:05:24.656Z,98390.77
2019-02-28T05:07:53.128Z,98393.56
2019-02-28T05:10:22.274Z,98394.27
2019-02-28T05:12:51.377Z,98376.53
2019-02-28T05:15:19.875Z,98386.95
2019-02-28T05:17:48.351Z,98384.54
2019-02-28T05:20:16.863Z,98385.25
2019-02-28T05:22:45.328Z,98384.44
2019-02-28T05:25:17.555Z,98377.52
2019-02-28T05:27:44.024Z,98377.03
2019-02-28T05:30:18.056Z,98371.49
2019-02-28T05:32:44.802Z,98367.86
2019-02-28T05:35:13.367Z,98357.82
2019-02-28T05:37:46.700Z,98349.38
2019-02-28T05:40:13.802Z,98355.84
2019-02-28T05:42:42.291Z,98358.02
2019-02-28T05:45:14.466Z,98360.36
2019-02-28T05:47:46.288Z,98362.08
2019-02-28T05:50:15.580Z,98357.22
2019-02-28T05:52:42.669Z,98349.91
2019-02-28T05:55:11.612Z,98349.70
2019-02-28T05:57:43.393Z,98351.34
2019-02-28T06:00:13.573Z,98345.63
2019-02-28T06:02:42.051Z,98337.69
2019-02-28T06:05:11.847Z,98335.25
2019-02-28T06:07:40.752Z,98340.32
2019-02-28T06:10:11.089Z,98334.13
2019-02-28T06:12:40.540Z,98334.96
2019-02-28T06:15:11.983Z,98332.94
2019-02-28T06:17:40.452Z,98329.02
2019-02-28T06:20:10.599Z,98333.48
2019-02-28T06:22:39.077Z,98329.31
2019-02-28T06:25:09.340Z,98331.28
2019-02-28T06:27:41.647Z,98325.86
2019-02-28T06:30:12.969Z,98327.59
2019-02-28T06:32:41.445Z,98320.70
2019-02-28T06:35:10.086Z,98321.29
2019-02-28T06:37:39.207Z,98313.16
2019-02-28T06:40:13.350Z,98306.87
2019-02-28T06:42:43.439Z,98316.04
2019-02-28T06:45:19.049Z,98317.78
2019-02-28T06:47:49.595Z,98315.73
2019-02-28T06:50:17.809Z,98324.68
2019-02-28T06:52:46.283Z,98317.39
2019-02-28T06:55:25.388Z,98315.95
2019-02-28T06:57:53.856Z,98314.97
2019-02-28T07:00:22.425Z,98315.53
2019-02-28T07:02:50.900Z,98310.83
2019-02-28T07:05:24.622Z,98315.11
2019-02-28T07:07:50.058Z,98315.85
2019-02-28T07:10:18.948Z,98318.60
2019-02-28T07:12:47.421Z,98322.10
2019-02-28T07:15:15.999Z,98330.16
2019-02-28T07:17:46.520Z,98329.80
2019-02-28T07:20:16.042Z,98327.59
2019-02-28T07:22:44.597Z,98324.83
2019-02-28T07:25:13.874Z,98323.66
2019-02-28T07:27:42.498Z,98316.11
2019-02-28T07:30:17.333Z,98323.09
2019-02-28T07:32:44.164Z,98327.59
2019-02-28T07:35:12.740Z,98322.73
2019-02-28T07:37:41.220Z,98315.37
2019-02-28T07:40:17.543Z,98327.96
2019-02-28T07:42:46.225Z,98315.28
2019-02-28T07:45:15.366Z,98315.20
2019-02-28T07:47:43.979Z,98315.63
2019-02-28T07:50:14.590Z,98321.16
2019-02-28T07:52:43.061Z,98320.47
2019-02-28T07:55:13.701Z,98322.28
2019-02-28T07:57:42.184Z,98324.03
2019-02-28T08:00:18.190Z,98309.14
2019-02-28T08:02:46.202Z,98314.39
2019-02-28T08:05:15.136Z,98318.44
2019-02-28T08:07:50.196Z,98322.59
2019-02-28T08:10:19.255Z,98323.41
2019-02-28T08:12:47.734Z,98316.94
2019-02-28T08:15:23.582Z,98302.39
2019-02-28T08:17:52.301Z,98304.06
2019-02-28T08:20:21.345Z,98311.52
2019-02-28T08:22:49.827Z,98305.95
2019-02-28T08:25:18.332Z,98302.66
2019-02-28T08:27:46.946Z,98310.20
2019-02-28T08:30:20.880Z,98295.72
2019-02-28T08:32:49.598Z,98304.03
2019-02-28T08:35:18.122Z,98307.80
2019-02-28T08:37:46.588Z,98318.28
2019-02-28T08:40:22.983Z,98308.72
2019-02-28T08:42:51.460Z,98307.13
2019-02-28T08:45:19.974Z,98323.59
2019-02-28T08:47:48.530Z,98306.03
2019-02-28T08:50:23.629Z,98301.39
2019-02-28T08:53:05.652Z,98292.77
2019-02-28T08:55:34.162Z,98309.44
2019-02-28T08:58:06.070Z,98312.18
2019-02-28T09:00:33.424Z,98300.20
2019-02-28T09:03:02.014Z,98300.13
2019-02-28T09:05:30.532Z,98295.06
2019-02-28T09:07:59.139Z,98283.22
2019-02-28T09:10:28.076Z,98286.87
2019-02-28T09:12:56.563Z,98283.70
2019-02-28T09:15:30.147Z,98283.42
2019-02-28T09:17:59.359Z,98270.13
2019-02-28T09:20:25.822Z,98267.42
2019-02-28T09:22:54.311Z,98264.39
2019-02-28T09:25:23.961Z,98268.12
2019-02-28T09:27:52.585Z,98271.11
2019-02-28T09:30:41.619Z,98264.53
2019-02-28T09:33:10.212Z,98264.05
2019-02-28T09:35:38.680Z,98262.07
2019-02-28T09:38:13.014Z,98275.53
2019-02-28T09:40:37.392Z,98262.61
2019-02-28T09:43:06.016Z,98263.86
2019-02-28T09:45:35.002Z,98260.19
2019-02-28T09:48:03.548Z,98267.41
2019-02-28T09:50:33.163Z,98258.06
2019-02-28T09:53:01.894Z,98253.43
2019-02-28T09:55:34.262Z,98252.42
2019-02-28T09:58:00.674Z,98259.58
2019-02-28T10:00:30.248Z,98270.09
2019-02-28T10:02:58.723Z,98264.23
2019-02-28T10:05:27.222Z,98260.72
2019-02-28T10:08:01.690Z,98264.09
2019-02-28T10:10:30.301Z,98273.23
2019-02-28T10:12:58.777Z,98282.06
2019-02-28T10:15:27.428Z,98264.66
2019-02-28T10:17:55.954Z,98279.33
2019-02-28T10:20:28.418Z,98283.75
2019-02-28T10:22:57.163Z,98286.39
2019-02-28T10:25:25.713Z,98278.20
2019-02-28T10:27:54.831Z,98277.84
2019-02-28T10:30:31.624Z,98288.01
2019-02-28T10:32:54.991Z,98282.55
2019-02-28T10:35:23.474Z,98301.16
2019-02-28T10:37:57.454Z,98286.83
2019-02-28T10:40:24.963Z,98283.56
2019-02-28T10:42:53.807Z,98289.50
2019-02-28T10:45:23.096Z,98288.83
2019-02-28T10:47:51.608Z,98274.38
2019-02-28T10:50:22.429Z,98268.98
2019-02-28T10:52:51.003Z,98271.98
2019-02-28T10:55:22.403Z,98288.08
2019-02-28T10:57:50.187Z,98271.86
2019-02-28T11:00:29.282Z,98286.06
2019-02-28T11:02:57.781Z,98288.69
2019-02-28T11:05:29.087Z,98284.89
2019-02-28T11:07:57.735Z,98287.55
2019-02-28T11:10:37.994Z,98293.69
2019-02-28T11:13:09.555Z,98293.57
2019-02-28T11:15:38.176Z,98295.70
2019-02-28T11:18:09.559Z,98293.67
2019-02-28T11:20:37.747Z,98296.67
2019-02-28T11:23:07.652Z,98291.09
2019-02-28T11:25:36.516Z,98287.45
2019-02-28T11:28:05.261Z,98287.11
2019-02-28T11:30:36.053Z,98281.30
2019-02-28T11:33:04.855Z,98283.63
2019-02-28T11:35:33.481Z,98281.19
2019-02-28T11:38:02.115Z,98298.27
2019-02-28T11:40:30.844Z,98311.08
2019-02-28T11:43:02.754Z,98296.44
2019-02-28T11:45:34.209Z,98302.93
2019-02-28T11:48:05.358Z,98290.81
2019-02-28T11:50:33.912Z,98288.95
2019-02-28T11:53:05.708Z,98293.81
2019-02-28T11:55:32.622Z,98295.89
2019-02-28T11:58:01.569Z,98287.60
2019-02-28T12:00:35.916Z,98273.09
2019-02-28T12:03:02.955Z,98277.97
2019-02-28T12:05:31.505Z,98282.23
2019-02-28T12:08:00.014Z,98278.30
2019-02-28T12:10:28.497Z,98273.02
2019-02-28T12:12:57.000Z,98272.68
2019-02-28T12:15:30.771Z,98273.45
2019-02-28T12:18:03.495Z,98284.45
2019-02-28T12:20:29.557Z,98278.69
2019-02-28T12:22:58.071Z,98268.78
2019-02-28T12:25:26.892Z,98265.31
2019-02-28T12:27:55.471Z,98265.30
2019-02-28T12:30:29.052Z,98261.33
2019-02-28T12:32:57.564Z,98254.91
2019-02-28T12:35:26.042Z,98253.75
2019-02-28T12:37:55.016Z,98255.98
2019-02-28T12:40:35.264Z,98264.67
2019-02-28T12:43:08.807Z,98243.52
2019-02-28T12:45:41.276Z,98249.41
2019-02-28T12:48:09.862Z,98256.78
2019-02-28T12:50:38.405Z,98251.49
2019-02-28T12:53:07.253Z,98253.09
2019-02-28T12:55:39.022Z,98263.95
2019-02-28T12:58:06.907Z,98255.22
2019-02-28T13:00:40.682Z,98251.93
2019-02-28T13:03:10.219Z,98252.22
2019-02-28T13:05:38.771Z,98263.09
2019-02-28T13:08:07.287Z,98250.69
2019-02-28T13:10:35.999Z,98256.52
2019-02-28T13:13:06.794Z,98260.23
2019-02-28T13:15:35.022Z,98250.16
2019-02-28T13:18:07.163Z,98249.41
2019-02-28T13:20:36.489Z,98240.03
2019-02-28T13:23:05.347Z,98238.84
2019-02-28T13:25:34.011Z,98250.67
2019-02-28T13:28:02.512Z,98248.23
2019-02-28T13:30:31.138Z,98240.80
2019-02-28T13:32:59.814Z,98230.38
2019-02-28T13:35:30.704Z,98254.23
2019-02-28T13:37:59.291Z,98249.17
2019-02-28T13:40:27.771Z,98257.28
2019-02-28T13:42:56.296Z,98240.84
2019-02-28T13:45:25.496Z,98241.29
2019-02-28T13:47:54.005Z,98232.91
2019-02-28T13:50:33.160Z,98235.61
2019-02-28T13:53:03.441Z,98238.55
2019-02-28T13:55:31.999Z,98238.55
2019-02-28T13:58:00.660Z,98246.48
2019-02-28T14:00:33.816Z,98236.12
2019-02-28T14:03:10.487Z,98240.91
2019-02-28T14:05:41.296Z,98250.13
2019-02-28T14:08:11.243Z,98241.42
2019-02-28T14:10:39.662Z,98240.83
2019-02-28T14:13:08.375Z,98233.23
2019-02-28T14:15:39.336Z,98246.48
2019-02-28T14:18:10.945Z,98240.31
2019-02-28T14:20:38.560Z,98237.73
2019-02-28T14:23:07.142Z,98241.71
2019-02-28T14:25:36.377Z,98251.99
2019-02-28T14:28:06.097Z,98243.22
2019-02-28T14:30:34.651Z,98240.11
2019-02-28T14:33:03.226Z,98233.50
2019-02-28T14:35:35.184Z,98251.61
2019-02-28T14:38:01.930Z,98250.35
2019-02-28T14:40:30.418Z,98235.73
2019-02-28T14:42:58.998Z,98243.73
2019-02-28T14:45:29.520Z,98238.08
2019-02-28T14:48:00.865Z,98244.34
2019-02-28T14:50:28.229Z,98243.64
2019-02-28T14:52:58.086Z,98253.88
2019-02-28T14:55:29.377Z,98251.59
2019-02-28T14:57:57.247Z,98261.73
2019-02-28T15:00:35.342Z,98252.69
2019-02-28T15:03:04.214Z,98243.40
2019-02-28T15:05:38.137Z,98237.81
2019-02-28T15:08:06.793Z,98243.91
2019-02-28T15:10:35.414Z,98243.06
2019-02-28T15:13:04.936Z,98241.94
2019-02-28T15:15:35.919Z,98242.42
2019-02-28T15:18:04.190Z,98246.05
2019-02-28T15:20:33.162Z,98241.62
2019-02-28T15:23:01.862Z,98231.96
2019-02-28T15:25:30.981Z,98233.50
2019-02-28T15:27:59.662Z,98243.80
2019-02-28T15:30:34.838Z,98221.41
2019-02-28T15:33:03.672Z,98229.70
2019-02-28T15:35:32.135Z,98223.02
2019-02-28T15:38:00.730Z,98217.45
2019-02-28T15:40:32.049Z,98216.54
2019-02-28T15:43:00.564Z,98222.45
2019-02-28T15:45:29.179Z,98219.25
2019-02-28T15:47:59.130Z,98214.81
2019-02-28T15:50:27.886Z,98211.02
2019-02-28T15:52:56.504Z,98211.80
2019-02-28T15:55:25.548Z,98211.73
2019-02-28T15:57:54.094Z,98206.69
2019-02-28T16:00:30.512Z,98207.43
2019-02-28T16:02:59.128Z,98207.37
2019-02-28T16:05:27.774Z,98210.66
2019-02-28T16:07:57.298Z,98211.10
2019-02-28T16:10:28.575Z,98210.67
2019-02-28T16:12:58.717Z,98209.86
2019-02-28T16:15:27.451Z,98209.25
2019-02-28T16:17:56.016Z,98213.50
2019-02-28T16:20:25.106Z,98215.03
2019-02-28T16:22:53.659Z,98210.20
2019-02-28T16:25:25.020Z,98226.75
2019-02-28T16:27:53.496Z,98218.28
2019-02-28T16:30:22.347Z,98227.95
2019-02-28T16:32:50.860Z,98221.95
2019-02-28T16:35:19.439Z,98221.03
2019-02-28T16:37:47.934Z,98224.73
2019-02-28T16:40:26.181Z,98232.39
2019-02-28T16:42:51.730Z,98236.23
2019-02-28T16:45:24.929Z,98237.34
2019-02-28T16:47:55.688Z,98230.69
2019-02-28T16:50:23.645Z,98243.42
2019-02-28T16:52:52.321Z,98249.48
2019-02-28T16:55:20.830Z,98252.27
2019-02-28T16:57:49.313Z,98252.91
2019-02-28T17:00:18.336Z,98253.00
2019-02-28T17:02:46.955Z,98255.98
2019-02-28T17:05:15.535Z,98259.09
2019-02-28T17:07:44.567Z,98257.93
2019-02-28T17:10:19.006Z,98270.29
2019-02-28T17:12:51.962Z,98267.66
2019-02-28T17:15:23.276Z,98267.97
2019-02-28T17:17:54.211Z,98264.34
2019-02-28T17:20:22.720Z,98272.94
2019-02-28T17:22:51.203Z,98273.30
2019-02-28T17:25:21.832Z,98281.57
2019-02-28T17:27:57.277Z,98279.22
2019-02-28T17:30:39.188Z,98288.00
2019-02-28T17:33:09.091Z,98292.87
2019-02-28T17:35:38.295Z,98300.23
2019-02-28T17:38:06.846Z,98297.69
2019-02-28T17:40:35.424Z,98301.69
2019-02-28T17:43:03.901Z,98301.99
2019-02-28T17:45:32.482Z,98297.95
2019-02-28T17:48:20.420Z,98307.84
2019-02-28T17:51:00.545Z,98306.27
2019-02-28T17:53:35.018Z,98307.59
2019-02-28T17:56:24.524Z,98313.52
2019-02-28T17:59:05.289Z,98316.86
2019-02-28T18:01:48.429Z,98328.02
2019-02-28T18:04:24.110Z,98318.55
2019-02-28T18:07:16.568Z,98313.69
2019-02-28T18:09:53.980Z,98322.92
2019-02-28T18:12:58.356Z,98315.56
2019-02-28T18:15:35.795Z,98313.27
2019-02-28T18:18:22.407Z,98315.56
2019-02-28T18:21:12.583Z,98318.06
2019-02-28T18:23:50.035Z,98314.83
2019-02-28T18:26:39.284Z,98309.89
2019-02-28T18:29:14.874Z,98313.95
2019-02-28T18:31:43.360Z,98320.19
2019-02-28T18:34:11.991Z,98321.28
2019-02-28T18:36:43.377Z,98316.35
2019-02-28T18:39:11.637Z,98322.48
2019-02-28T18:41:42.156Z,98321.45
2019-02-28T18:44:11.093Z,98328.91
2019-02-28T18:46:39.590Z,98337.11
2019-02-28T18:49:08.075Z,98339.84
2019-02-28T18:51:36.581Z,98328.55
2019-02-28T18:54:05.303Z,98328.62
2019-02-28T18:56:33.816Z,98328.50
2019-02-28T18:59:02.358Z,98328.99
2019-02-28T19:01:30.915Z,98325.43
2019-02-28T19:03:59.424Z,98335.59
2019-02-28T19:06:27.973Z,98335.91
2019-02-28T19:08:56.480Z,98344.41
2019-02-28T19:11:25.062Z,98343.25
2019-02-28T19:13:53.563Z,98342.75
2019-02-28T19:16:22.068Z,98339.82
2019-02-28T19:18:50.547Z,98357.58
2019-02-28T19:21:19.057Z,98346.51
2019-02-28T19:23:47.540Z,98348.77
2019-02-28T19:26:17.521Z,98339.97
2019-02-28T19:28:46.004Z,98353.05
2019-02-28T19:31:14.515Z,98353.36
2019-02-28T19:33:43.064Z,98353.08
2019-02-28T19:36:11.579Z,98350.53
2019-02-28T19:38:40.058Z,98346.15
2019-02-28T19:41:10.208Z,98343.18
2019-02-28T19:43:38.691Z,98346.02
2019-02-28T19:46:07.296Z,98344.35
2019-02-28T19:48:36.439Z,98354.36
2019-02-28T19:51:05.194Z,98355.33
2019-02-28T19:53:33.678Z,98352.02
2019-02-28T19:56:02.189Z,98354.98
2019-02-28T19:58:30.728Z,98352.91
2019-02-28T20:00:59.697Z,98351.59
2019-02-28T20:03:28.173Z,98347.48
2019-02-28T20:05:56.706Z,98348.05
2019-02-28T20:08:25.180Z,98358.31
2019-02-28T20:10:53.772Z,98352.51
2019-02-28T20:13:22.250Z,98346.95
2019-02-28T20:15:50.837Z,98354.40
2019-02-28T20:18:19.378Z,98348.97
2019-02-28T20:20:48.662Z,98348.67
2019-02-28T20:23:17.158Z,98356.68
2019-02-28T20:25:45.627Z,98358.14
2019-02-28T20:28:14.214Z,98357.64
2019-02-28T20:30:42.773Z,98355.91
2019-02-28T20:33:11.362Z,98358.75
2019-02-28T20:35:39.909Z,98362.80
2019-02-28T20:38:08.422Z,98370.01
2019-02-28T20:40:38.334Z,98369.50
2019-02-28T20:43:06.845Z,98371.30
2019-02-28T20:45:35.327Z,98378.73
2019-02-28T20:48:04.357Z,98377.83
2019-02-28T20:50:47.578Z,98376.95
2019-02-28T20:53:16.097Z,98371.13
2019-02-28T20:55:44.594Z,98379.61
2019-02-28T20:58:13.118Z,98378.12
2019-02-28T21:00:41.667Z,98377.24
2019-02-28T21:03:10.191Z,98381.55
2019-02-28T21:05:38.742Z,98393.66
2019-02-28T21:08:07.262Z,98394.28
2019-02-28T21:10:35.736Z,98401.48
2019-02-28T21:13:04.321Z,98404.25
2019-02-28T21:15:32.802Z,98400.94
2019-02-28T21:18:01.325Z,98409.95
2019-02-28T21:20:29.825Z,98405.23
2019-02-28T21:22:58.332Z,98400.53
2019-02-28T21:25:26.834Z,98413.20
2019-02-28T21:27:55.331Z,98403.15
2019-02-28T21:30:26.033Z,98404.14
2019-02-28T21:32:54.804Z,98404.43
2019-02-28T21:35:23.723Z,98406.67
2019-02-28T21:37:52.382Z,98415.61
2019-02-28T21:40:22.067Z,98412.03
2019-02-28T21:42:51.671Z,98413.92
2019-02-28T21:45:22.438Z,98412.41
2019-02-28T21:47:50.986Z,98416.53
2019-02-28T21:50:19.531Z,98408.31
2019-02-28T21:52:48.233Z,98408.31
2019-02-28T21:55:17.976Z,98403.88
2019-02-28T21:57:46.871Z,98404.97
2019-02-28T22:00:18.400Z,98399.66
2019-02-28T22:02:46.918Z,98399.19
2019-02-28T22:05:15.540Z,98401.37
2019-02-28T22:07:44.606Z,98407.41
2019-02-28T22:10:17.318Z,98402.48
2019-02-28T22:12:45.876Z,98410.00
2019-02-28T22:15:16.414Z,98401.18
2019-02-28T22:17:44.912Z,98396.59
2019-02-28T22:20:14.944Z,98393.79
2019-02-28T22:22:43.457Z,98391.77
2019-02-28T22:25:14.320Z,98389.98
2019-02-28T22:27:42.981Z,98385.35
2019-02-28T22:30:24.692Z,98383.56
2019-02-28T22:32:57.771Z,98383.03
2019-02-28T22:35:27.896Z,98379.95
2019-02-28T22:37:56.410Z,98388.97
2019-02-28T22:40:24.896Z,98384.15
2019-02-28T22:42:53.408Z,98388.16
2019-02-28T22:45:21.893Z,98378.84
2019-02-28T22:47:50.410Z,98375.52
2019-02-28T22:50:18.901Z,98380.53
2019-02-28T22:52:47.942Z,98374.64
2019-02-28T22:55:18.989Z,98377.63
2019-02-28T22:57:47.490Z,98382.45
2019-02-28T23:00:31.872Z,98371.73
2019-02-28T23:03:00.470Z,98372.31
2019-02-28T23:05:28.936Z,98365.61
2019-02-28T23:07:57.484Z,98367.30
2019-02-28T23:10:25.935Z,98372.52
2019-02-28T23:12:54.577Z,98367.30
2019-02-28T23:15:23.060Z,98368.91
2019-02-28T23:17:51.566Z,98367.72
2019-02-28T23:20:20.048Z,98361.78
2019-02-28T23:22:48.555Z,98362.08
2019-02-28T23:25:17.034Z,98358.36
2019-02-28T23:27:45.544Z,98356.08
2019-02-28T23:30:35.043Z,98354.45
2019-02-28T23:33:03.693Z,98348.45
2019-02-28T23:35:34.307Z,98353.46
2019-02-28T23:38:02.812Z,98354.55
2019-02-28T23:40:31.330Z,98345.80
2019-02-28T23:42:59.794Z,98340.99
2019-02-28T23:45:28.276Z,98336.81
2019-02-28T23:47:56.788Z,98335.02
2019-02-28T23:50:25.270Z,98340.72
2019-02-28T23:52:53.778Z,98350.13
2019-02-28T23:55:22.263Z,98353.14
2019-02-28T23:57:50.750Z,98359.52
